Time;durP1;ratioP1;P1;durP2;ratioP2;P2;SDS_P1;SDS_P2;PMS_P1;PMS_P2;Temp;Humidity;BMP_temperature;BMP_pressure;BME280_temperature;BME280_humidity;BME280_pressure;Samples;Min_cycle;Max_cycle;Signal;HPM_P1;HPM_P2
2022/07/13 00:00:14;;;;;;;1.05;1.00;;;18.70;74.30;;;17.88;57.51;98062.56;5091598;28;20400;-76
2022/07/13 00:02:41;;;;;;;1.10;1.00;;;18.70;74.40;;;17.78;57.88;98057.28;5092709;28;20451;-76
2022/07/13 00:05:09;;;;;;;2.20;1.20;;;18.60;75.00;;;17.76;57.90;98062.91;5092596;28;20398;-76
2022/07/13 00:07:35;;;;;;;1.20;0.90;;;18.60;75.10;;;17.84;57.90;98056.16;5092461;28;20401;-77
2022/07/13 00:10:02;;;;;;;1.13;1.02;;;18.60;75.30;;;17.76;57.95;98062.13;5091823;28;20394;-77
2022/07/13 00:12:28;;;;;;;1.38;1.20;;;18.60;75.30;;;17.65;58.28;98060.63;5092266;28;20867;-76
2022/07/13 00:14:53;;;;;;;0.90;0.90;;;18.50;75.70;;;17.62;58.39;98053.94;5092436;28;20409;-76
2022/07/13 00:17:19;;;;;;;3.10;1.10;;;18.40;75.90;;;17.60;58.44;98056.06;5092522;28;20402;-76
2022/07/13 00:19:47;;;;;;;1.20;1.10;;;18.40;75.90;;;17.66;58.08;98056.88;5091859;28;20401;-76
2022/07/13 00:22:13;;;;;;;1.20;1.10;;;18.50;75.80;;;17.60;58.11;98053.38;5092100;28;20414;-75
2022/07/13 00:24:39;;;;;;;0.90;0.90;;;18.40;75.60;;;17.56;58.18;98049.66;5092298;28;20782;-75
2022/07/13 00:27:05;;;;;;;2.53;1.20;;;18.40;75.80;;;17.55;58.18;98052.63;5092388;28;20394;-75
2022/07/13 00:29:31;;;;;;;3.20;1.20;;;18.40;75.80;;;17.50;58.44;98052.66;5091650;28;20969;-75
2022/07/13 00:31:57;;;;;;;1.20;1.10;;;18.30;76.10;;;17.43;58.81;98050.31;5092022;28;20478;-75
2022/07/13 00:34:23;;;;;;;1.30;1.20;;;18.20;76.40;;;17.41;59.06;98052.47;5092113;28;20402;-75
2022/07/13 00:36:50;;;;;;;1.95;1.15;;;18.20;76.80;;;17.44;59.01;98059.16;5092120;28;20413;-76
2022/07/13 00:39:16;;;;;;;1.75;1.15;;;18.30;77.00;;;17.48;58.91;98066.31;5091429;28;20475;-75
2022/07/13 00:41:45;;;;;;;1.55;1.23;;;18.30;77.00;;;17.42;58.98;98056.75;5091709;28;20892;-76
2022/07/13 00:44:12;;;;;;;2.83;1.23;;;18.20;77.20;;;17.33;59.41;98059.19;5091818;28;20405;-77
2022/07/13 00:46:44;;;;;;;1.30;1.10;;;18.10;77.40;;;17.29;59.69;98066.16;5091852;28;20394;-76
2022/07/13 00:49:11;;;;;;;1.10;1.00;;;18.10;77.80;;;17.25;59.53;98054.44;5090263;28;20397;-76
2022/07/13 00:51:38;;;;;;;2.40;1.10;;;18.10;77.90;;;17.27;59.81;98054.97;5091475;28;20433;-75
2022/07/13 00:54:07;;;;;;;1.80;1.30;;;18.10;78.20;;;17.35;59.33;98053.56;5091629;28;20489;-76
2022/07/13 00:56:33;;;;;;;1.98;1.05;;;18.20;77.90;;;17.27;59.52;98051.50;5091543;28;20760;-76
2022/07/13 00:59:00;;;;;;;1.40;1.20;;;18.10;78.20;;;17.29;59.92;98052.78;5091013;28;20428;-75
2022/07/13 01:01:26;;;;;;;1.88;1.17;;;18.10;78.60;;;17.22;59.77;98052.31;5091198;28;20409;-76
2022/07/13 01:03:52;;;;;;;2.67;1.17;;;18.10;78.60;;;17.17;60.05;98055.03;5091346;28;20489;-76
2022/07/13 01:06:19;;;;;;;1.88;1.20;;;18.00;78.90;;;17.15;59.85;98059.03;5091429;28;20409;-76
2022/07/13 01:08:46;;;;;;;3.30;1.50;;;18.00;78.80;;;17.08;60.06;98051.31;5090808;28;20398;-76
2022/07/13 01:11:13;;;;;;;1.90;1.20;;;17.90;79.10;;;17.03;60.37;98052.16;5091081;28;20401;-76
2022/07/13 01:13:40;;;;;;;1.42;1.20;;;17.80;79.50;;;16.97;60.75;98047.13;5091229;28;20494;-76
2022/07/13 01:16:09;;;;;;;2.35;1.30;;;17.80;79.80;;;16.96;60.53;98042.84;5073129;28;20975;-75
2022/07/13 01:18:35;;;;;;;2.20;1.10;;;17.80;79.90;;;17.00;60.52;98038.53;5090514;28;20386;-75
2022/07/13 01:21:04;;;;;;;1.00;1.00;;;17.80;80.00;;;16.99;61.04;98044.94;5090655;28;20406;-75
2022/07/13 01:23:32;;;;;;;1.17;1.08;;;17.80;80.20;;;16.95;60.65;98035.88;5091075;28;20895;-75
2022/07/13 01:25:58;;;;;;;2.28;1.15;;;17.80;80.20;;;16.92;60.82;98044.44;5091103;28;20429;-75
2022/07/13 01:28:24;;;;;;;2.78;1.30;;;17.70;80.50;;;16.89;61.11;98032.44;5090624;28;20398;-75
2022/07/13 01:30:51;;;;;;;1.20;1.10;;;17.70;80.80;;;16.86;61.43;98034.88;5090731;28;20422;-75
2022/07/13 01:33:17;;;;;;;1.20;1.10;;;17.60;81.20;;;16.87;61.53;98033.78;5090655;28;20483;-75
2022/07/13 01:35:43;;;;;;;1.85;1.15;;;17.70;81.60;;;16.89;61.67;98039.69;5090919;28;20406;-75
2022/07/13 01:38:09;;;;;;;1.40;1.20;;;17.70;81.90;;;16.95;61.81;98038.56;5090539;28;20413;-75
2022/07/13 01:40:38;;;;;;;2.08;1.27;;;17.70;82.10;;;16.93;61.61;98041.50;5090349;28;20398;-75
2022/07/13 01:43:05;;;;;;;1.50;1.20;;;17.70;82.10;;;16.91;61.84;98040.22;5072705;28;20410;-75
2022/07/13 01:45:31;;;;;;;2.00;1.20;;;17.70;82.30;;;16.92;61.54;98031.88;5090781;28;20508;-75
2022/07/13 01:47:57;;;;;;;2.90;1.00;;;17.70;82.30;;;17.00;61.44;98028.63;5090705;28;20404;-75
2022/07/13 01:50:25;;;;;;;1.65;1.10;;;17.80;82.30;;;17.04;61.36;98036.91;5071593;28;20489;-75
2022/07/13 01:52:51;;;;;;;1.30;1.20;;;17.80;82.10;;;17.06;61.93;98034.78;5090750;28;20477;-75
2022/07/13 01:55:18;;;;;;;1.73;1.17;;;17.90;82.50;;;17.07;62.03;98039.03;5090503;28;20485;-75
2022/07/13 01:57:45;;;;;;;1.40;1.10;;;17.80;83.00;;;17.02;61.91;98028.34;5090675;28;20459;-75
2022/07/13 02:00:15;;;;;;;2.00;1.17;;;17.80;82.90;;;17.01;61.90;98018.72;5089428;28;20406;-76
2022/07/13 02:02:42;;;;;;;3.05;1.20;;;17.80;83.00;;;17.07;61.96;98019.50;5089072;28;20444;-76
2022/07/13 02:05:09;;;;;;;2.50;1.20;;;17.80;83.10;;;17.08;62.02;98021.09;5090428;28;20424;-76
2022/07/13 02:07:35;;;;;;;1.00;1.00;;;17.80;83.30;;;17.01;62.22;98022.22;5090400;28;20398;-76
2022/07/13 02:10:01;;;;;;;2.50;1.00;;;17.80;83.40;;;17.09;62.32;98022.69;5089604;28;20721;-76
2022/07/13 02:12:27;;;;;;;1.52;1.10;;;17.80;83.70;;;17.00;62.25;98017.13;5090067;28;20406;-76
2022/07/13 02:14:54;;;;;;;2.10;1.10;;;17.80;83.80;;;16.94;62.50;98008.34;5088812;28;20418;-76
2022/07/13 02:17:20;;;;;;;2.40;1.10;;;17.70;84.20;;;16.98;62.47;98003.25;5090361;28;20864;-76
2022/07/13 02:19:46;;;;;;;2.97;1.17;;;17.80;84.40;;;16.96;62.67;98000.06;5089805;28;20390;-77
2022/07/13 02:22:12;;;;;;;1.27;1.00;;;17.70;84.70;;;16.96;62.93;98002.72;5089953;28;20445;-76
2022/07/13 02:24:38;;;;;;;1.10;1.00;;;17.70;84.90;;;16.97;63.05;97993.63;5090170;28;20493;-76
2022/07/13 02:27:04;;;;;;;1.20;1.10;;;17.70;85.10;;;16.84;63.12;97987.00;5090263;28;20432;-76
2022/07/13 02:29:30;;;;;;;1.58;1.10;;;17.60;85.20;;;16.79;63.50;97994.25;5089531;28;20404;-76
2022/07/13 02:31:57;;;;;;;1.10;1.00;;;17.60;86.10;;;16.82;63.45;97983.03;5089679;28;20406;-76
2022/07/13 02:34:27;;;;;;;1.40;1.00;;;17.60;86.30;;;16.87;63.46;97977.63;5090056;28;20402;-76
2022/07/13 02:36:53;;;;;;;1.70;1.10;;;17.60;86.30;;;16.86;63.19;97978.72;5089953;28;20394;-76
2022/07/13 02:39:19;;;;;;;1.48;0.90;;;17.60;86.70;;;16.87;63.20;97973.09;5071297;28;20907;-76
2022/07/13 02:41:45;;;;;;;1.42;1.00;;;17.60;86.00;;;16.84;63.38;97964.84;5089547;28;20417;-76
2022/07/13 02:44:10;;;;;;;1.90;1.00;;;17.60;86.10;;;16.83;63.43;97971.25;5089935;28;20421;-75
2022/07/13 02:46:36;;;;;;;1.20;1.10;;;17.60;86.50;;;16.78;63.56;97969.41;5089974;28;20402;-76
2022/07/13 02:49:04;;;;;;;2.40;1.20;;;17.60;86.60;;;16.78;63.67;97974.75;5089376;28;20399;-76
2022/07/13 02:51:30;;;;;;;1.80;1.08;;;17.60;87.00;;;16.79;63.91;97973.66;5089618;28;20459;-76
2022/07/13 02:53:55;;;;;;;1.40;1.30;;;17.60;87.20;;;16.80;63.62;97974.47;5089817;28;20394;-76
2022/07/13 02:56:21;;;;;;;1.35;1.05;;;17.60;87.10;;;16.80;63.62;97980.63;5089977;28;20420;-76
2022/07/13 02:58:47;;;;;;;1.60;1.30;;;17.60;87.10;;;16.79;63.58;97980.88;5089235;28;20405;-76
2022/07/13 03:01:13;;;;;;;1.80;1.10;;;17.60;87.00;;;16.73;63.76;97971.31;5089419;28;20420;-76
2022/07/13 03:03:39;;;;;;;2.20;1.23;;;17.50;87.40;;;16.74;63.85;97968.38;5089682;28;20420;-77
2022/07/13 03:06:07;;;;;;;1.50;1.20;;;17.50;87.70;;;16.70;63.81;97974.53;5089896;28;20755;-76
2022/07/13 03:08:33;;;;;;;1.85;1.27;;;17.50;87.90;;;16.71;63.83;97979.59;5089039;28;20497;-76
2022/07/13 03:10:58;;;;;;;1.67;1.40;;;17.50;88.00;;;16.63;64.37;97977.50;5090172;28;20402;-76
2022/07/13 03:13:24;;;;;;;1.58;1.25;;;17.40;88.50;;;16.57;64.32;97982.03;5093707;28;20401;-76
2022/07/13 03:15:50;;;;;;;2.83;1.10;;;17.40;88.50;;;16.53;64.02;97981.00;5093591;28;20409;-76
2022/07/13 03:18:16;;;;;;;1.60;1.25;;;17.30;88.60;;;16.51;64.34;97977.00;5074906;28;20508;-76
2022/07/13 03:20:42;;;;;;;1.88;1.30;;;17.30;88.50;;;16.47;64.18;97973.25;5093136;28;20401;-77
2022/07/13 03:23:09;;;;;;;1.40;1.15;;;17.30;88.60;;;16.44;64.17;97971.97;5093601;28;20493;-76
2022/07/13 03:25:35;;;;;;;1.90;1.33;;;17.30;88.80;;;16.42;64.12;97968.75;5093414;28;20906;-76
2022/07/13 03:28:01;;;;;;;1.55;1.10;;;17.20;89.00;;;16.37;64.73;97963.44;5092919;28;20741;-77
2022/07/13 03:30:28;;;;;;;1.48;1.30;;;17.20;89.30;;;16.37;64.89;97973.31;5093106;28;20414;-76
2022/07/13 03:32:54;;;;;;;2.38;1.35;;;17.20;89.90;;;16.34;64.67;97969.31;5093314;28;20425;-75
2022/07/13 03:35:20;;;;;;;1.85;1.20;;;17.20;90.20;;;16.30;64.88;97962.13;5093264;28;20448;-76
2022/07/13 03:37:46;;;;;;;2.78;1.33;;;17.10;90.10;;;16.29;64.94;97971.22;5093367;28;20404;-76
2022/07/13 03:40:14;;;;;;;2.72;1.42;;;17.10;90.20;;;16.23;65.14;97965.09;5092142;28;20409;-76
2022/07/13 03:42:40;;;;;;;1.40;1.30;;;17.00;90.20;;;16.25;65.24;97963.75;5092409;22;20443;-75
2022/07/13 03:45:07;;;;;;;1.40;1.30;;;17.00;90.30;;;16.25;65.29;97970.94;5066160;28;20423;-75
2022/07/13 03:47:33;;;;;;;1.37;1.27;;;17.10;90.50;;;16.21;65.39;97969.91;5070546;28;20400;-76
2022/07/13 03:49:59;;;;;;;1.73;1.40;;;17.00;90.50;;;16.16;65.63;97965.38;5070685;28;20418;-76
2022/07/13 03:52:25;;;;;;;1.80;1.40;;;17.00;90.80;;;16.14;65.72;97964.88;5065477;28;20403;-75
2022/07/13 03:54:51;;;;;;;2.45;1.40;;;17.00;90.90;;;16.13;65.99;97968.59;5061686;28;20766;-75
2022/07/13 03:57:18;;;;;;;2.70;1.25;;;17.00;91.10;;;16.20;65.98;97966.44;5069419;28;20429;-75
2022/07/13 03:59:44;;;;;;;1.73;1.40;;;17.00;91.30;;;16.17;66.01;97969.63;5060680;28;20462;-74
2022/07/13 04:02:10;;;;;;;1.58;1.20;;;17.00;91.40;;;16.12;66.16;97968.88;5063016;28;20416;-76
2022/07/13 04:04:36;;;;;;;2.08;1.38;;;16.90;91.60;;;16.15;66.70;97971.00;5066839;28;20435;-77
2022/07/13 04:07:02;;;;;;;2.80;1.42;;;16.90;91.90;;;16.05;66.62;97971.03;5072507;28;20391;-76
2022/07/13 04:09:29;;;;;;;1.50;1.40;;;16.90;92.00;;;16.06;66.70;97964.63;5071639;28;20908;-77
2022/07/13 04:11:55;;;;;;;4.78;2.55;;;16.90;92.30;;;16.10;66.72;97966.47;5071911;28;20487;-76
2022/07/13 04:14:22;;;;;;;4.18;2.47;;;16.90;92.30;;;16.05;66.62;97965.69;5072081;28;20416;-76
2022/07/13 04:16:48;;;;;;;8.93;3.33;;;16.80;92.30;;;16.14;66.56;97956.84;5072256;28;20414;-76
2022/07/13 04:19:13;;;;;;;5.28;3.50;;;16.90;92.50;;;16.12;66.90;97950.16;5071405;28;20411;-76
2022/07/13 04:21:39;;;;;;;5.60;3.70;;;16.90;92.60;;;16.15;66.78;97950.44;5071621;28;20411;-75
2022/07/13 04:24:06;;;;;;;7.43;3.65;;;16.90;92.70;;;16.17;66.76;97942.13;5067358;28;20461;-75
2022/07/13 04:26:33;;;;;;;6.30;3.70;;;17.00;92.70;;;16.22;66.94;97947.47;5060434;28;20406;-75
2022/07/13 04:28:59;;;;;;;6.35;3.65;;;17.00;92.80;;;16.26;66.76;97938.63;5061533;28;20420;-75
2022/07/13 04:31:26;;;;;;;6.70;3.35;;;17.00;92.80;;;16.31;67.09;97939.69;5068685;28;20435;-77
2022/07/13 04:33:52;;;;;;;6.35;3.33;;;17.10;92.90;;;16.34;67.13;97934.59;5030277;28;20500;-75
2022/07/13 04:36:18;;;;;;;6.27;3.50;;;17.10;93.20;;;16.36;67.01;97937.78;5051030;28;20408;-75
2022/07/13 04:38:44;;;;;;;5.20;3.10;;;17.10;93.30;;;16.40;66.97;97930.00;5047159;28;20887;-75
2022/07/13 04:41:11;;;;;;;5.68;3.13;;;17.10;93.10;;;16.46;66.43;97928.94;5049976;28;20432;-76
2022/07/13 04:43:36;;;;;;;5.03;3.05;;;17.20;93.00;;;16.48;66.61;97927.56;5045413;28;20417;-77
2022/07/13 04:46:03;;;;;;;5.55;2.70;;;17.20;92.90;;;16.52;66.61;97931.31;5047647;28;20925;-75
2022/07/13 04:48:30;;;;;;;4.55;2.95;;;17.30;92.90;;;16.59;66.54;97939.00;5050698;28;20398;-75
2022/07/13 04:50:57;;;;;;;4.30;2.70;;;17.30;93.10;;;16.66;66.91;97925.38;5050991;28;20402;-75
2022/07/13 04:53:22;;;;;;;3.65;2.42;;;17.40;93.20;;;16.71;67.01;97936.03;5051418;28;20405;-76
2022/07/13 04:55:48;;;;;;;3.80;2.40;;;17.40;93.50;;;16.78;67.19;97939.97;5051210;28;20416;-77
2022/07/13 04:58:14;;;;;;;4.50;2.10;;;17.50;93.70;;;16.85;67.25;97940.47;5051652;28;20408;-76
2022/07/13 05:00:40;;;;;;;4.85;2.08;;;17.60;93.90;;;16.96;67.40;97950.03;5051244;28;20417;-75
2022/07/13 05:03:06;;;;;;;3.75;1.90;;;17.70;94.10;;;17.06;67.27;97949.19;5048241;28;20427;-75
2022/07/13 05:05:33;;;;;;;2.28;1.60;;;17.80;94.10;;;17.18;67.12;97949.59;5056778;28;20395;-74
2022/07/13 05:08:00;;;;;;;3.40;1.60;;;17.90;94.00;;;17.31;66.76;97958.88;5060171;28;20494;-74
2022/07/13 05:10:26;;;;;;;2.85;1.70;;;18.00;93.90;;;17.44;66.28;97958.25;5042965;28;20400;-74
2022/07/13 05:12:52;;;;;;;3.97;1.98;;;18.10;93.40;;;17.57;65.61;97954.09;5068912;28;20430;-75
2022/07/13 05:15:18;;;;;;;2.43;1.80;;;18.30;92.90;;;17.68;65.28;97950.25;5070613;28;20405;-75
2022/07/13 05:17:44;;;;;;;2.40;1.50;;;18.40;92.60;;;17.79;64.87;97949.09;5070974;28;20399;-77
2022/07/13 05:20:11;;;;;;;2.00;1.30;;;18.50;92.20;;;17.91;64.33;97954.84;5070046;28;20407;-76
2022/07/13 05:22:39;;;;;;;3.70;1.60;;;18.60;91.60;;;18.04;63.54;97956.06;5070731;28;20419;-75
2022/07/13 05:25:06;;;;;;;2.17;1.20;;;18.70;91.40;;;18.17;63.09;97958.84;5051417;28;20482;-76
2022/07/13 05:27:32;;;;;;;1.67;1.10;;;18.80;90.70;;;18.34;62.58;97958.41;5029514;28;20502;-75
2022/07/13 05:29:58;;;;;;;4.00;1.30;;;19.00;90.20;;;18.46;62.14;97957.97;5030067;28;20518;-75
2022/07/13 05:32:24;;;;;;;3.15;1.30;;;19.10;89.40;;;18.58;62.60;97946.84;5030574;28;20399;-75
2022/07/13 05:34:50;;;;;;;2.30;1.30;;;19.20;89.70;;;18.67;61.69;97947.78;5030332;28;20792;-75
2022/07/13 05:37:16;;;;;;;2.83;1.48;;;19.30;88.70;;;18.78;61.10;97939.34;5030824;28;20403;-75
2022/07/13 05:39:44;;;;;;;3.25;1.40;;;19.40;87.50;;;18.87;60.92;97942.13;5030067;28;20787;-75
2022/07/13 05:42:10;;;;;;;4.85;1.30;;;19.50;86.90;;;18.97;60.88;97935.81;5030221;28;20466;-75
2022/07/13 05:44:37;;;;;;;1.90;1.30;;;19.60;86.50;;;19.05;60.61;97944.03;5030605;28;20959;-75
2022/07/13 05:47:03;;;;;;;3.00;1.40;;;19.70;86.20;;;19.12;60.52;97938.28;5030847;28;20501;-75
2022/07/13 05:49:29;;;;;;;3.35;1.30;;;19.80;85.90;;;19.14;60.47;97938.78;5029968;28;20403;-75
2022/07/13 05:51:55;;;;;;;2.08;1.35;;;19.80;85.50;;;19.16;60.32;97942.78;5030242;28;20907;-74
2022/07/13 05:54:20;;;;;;;3.88;1.30;;;19.80;85.40;;;19.15;60.44;97954.59;5030462;28;20521;-75
2022/07/13 05:56:48;;;;;;;3.30;1.30;;;19.80;85.30;;;19.12;60.45;97954.38;5030593;28;20900;-75
2022/07/13 05:59:14;;;;;;;2.50;1.20;;;19.70;85.30;;;19.11;60.41;97950.09;5029909;28;20399;-75
2022/07/13 06:01:40;;;;;;;1.73;1.10;;;19.70;85.30;;;19.11;59.90;97956.25;5030048;28;20414;-75
2022/07/13 06:04:06;;;;;;;3.63;1.17;;;19.70;84.60;;;19.12;59.96;97955.19;5030312;28;20401;-75
2022/07/13 06:06:32;;;;;;;1.90;0.90;;;19.70;84.30;;;19.20;59.47;97953.72;5030608;28;20422;-75
2022/07/13 06:08:58;;;;;;;1.50;0.90;;;19.80;83.90;;;19.28;59.58;97951.16;5029503;28;20533;-75
2022/07/13 06:11:24;;;;;;;1.85;1.00;;;19.80;83.80;;;19.37;59.72;97948.63;5029965;28;20768;-75
2022/07/13 06:13:51;;;;;;;1.42;1.08;;;19.90;84.00;;;19.51;57.54;97951.38;5030169;28;20394;-75
2022/07/13 06:16:17;;;;;;;1.52;0.90;;;20.10;81.10;;;19.60;56.35;97938.84;5012258;28;20901;-75
2022/07/13 06:18:43;;;;;;;1.65;1.00;;;20.20;78.90;;;19.74;55.64;97937.00;5029482;28;20447;-76
2022/07/13 06:21:09;;;;;;;2.00;0.97;;;20.30;77.80;;;19.87;54.89;97944.25;5029799;28;20410;-75
2022/07/13 06:23:35;;;;;;;3.10;1.00;;;20.40;76.80;;;20.01;53.68;97947.75;5029966;28;20487;-76
2022/07/13 06:26:01;;;;;;;1.47;0.80;;;20.60;75.00;;;20.16;53.85;97945.84;5029927;28;20429;-75
2022/07/13 06:28:27;;;;;;;2.73;1.20;;;20.70;75.00;;;20.25;53.01;97950.25;5029570;28;20411;-75
2022/07/13 06:30:54;;;;;;;2.63;0.90;;;20.80;73.90;;;20.39;52.70;97950.25;5029601;28;20461;-76
2022/07/13 06:33:20;;;;;;;2.67;1.00;;;20.90;73.30;;;20.44;52.59;97952.88;5029673;28;20421;-75
2022/07/13 06:35:46;;;;;;;1.92;1.05;;;21.00;72.90;;;20.52;52.36;97952.16;5029925;28;20885;-75
2022/07/13 06:38:12;;;;;;;3.13;1.00;;;21.10;72.50;;;20.55;51.35;97953.44;5029449;28;20490;-75
2022/07/13 06:40:38;;;;;;;3.85;0.90;;;21.10;71.10;;;20.66;49.84;97952.13;5029989;28;20758;-77
2022/07/13 06:43:04;;;;;;;1.73;1.05;;;21.20;68.90;;;20.65;50.48;97953.22;5016872;28;20781;-76
2022/07/13 06:45:30;;;;;;;0.93;0.90;;;21.20;69.30;;;20.70;50.18;97961.97;5037082;28;20407;-76
2022/07/13 06:47:57;;;;;;;3.03;1.05;;;21.20;68.70;;;20.75;49.90;97956.47;5036436;28;20440;-75
2022/07/13 06:50:23;;;;;;;1.60;0.80;;;21.30;68.50;;;20.81;50.04;97955.28;5033106;28;20403;-76
2022/07/13 06:52:49;;;;;;;3.30;1.00;;;21.30;68.50;;;20.92;49.22;97961.22;5033959;28;20410;-76
2022/07/13 06:55:15;;;;;;;2.53;0.80;;;21.50;67.60;;;20.95;49.66;97959.81;5033581;28;20414;-76
2022/07/13 06:57:41;;;;;;;1.67;1.00;;;21.50;68.00;;;20.98;49.93;97951.13;5016183;28;20808;-75
2022/07/13 07:00:10;;;;;;;2.90;1.10;;;21.50;68.10;;;21.06;49.43;97950.41;5032940;28;20490;-76
2022/07/13 07:02:36;;;;;;;6.55;0.93;;;21.60;67.60;;;21.09;49.64;97955.19;5032940;28;20442;-76
2022/07/13 07:05:05;;;;;;;1.57;0.90;;;21.70;67.70;;;21.11;49.82;97951.09;5033573;28;20410;-75
2022/07/13 07:07:31;;;;;;;2.10;1.10;;;21.60;67.90;;;21.19;49.64;97953.09;5033674;28;20803;-76
2022/07/13 07:09:57;;;;;;;1.63;1.00;;;21.80;67.60;;;21.32;48.64;97956.81;5032793;28;20399;-75
2022/07/13 07:12:23;;;;;;;1.23;0.80;;;21.90;66.40;;;21.41;48.80;97952.28;5015465;28;20414;-76
2022/07/13 07:14:49;;;;;;;1.87;1.00;;;21.90;66.70;;;21.45;49.57;97939.78;5033347;28;20403;-76
2022/07/13 07:17:16;;;;;;;1.40;1.00;;;21.90;67.30;;;21.48;49.87;97946.47;5033739;28;20476;-75
2022/07/13 07:19:44;;;;;;;4.05;0.80;;;22.00;67.80;;;21.54;49.41;97947.91;5032715;28;20403;-76
2022/07/13 07:22:12;;;;;;;2.63;1.05;;;22.00;67.40;;;21.64;48.24;97942.28;5033083;28;20427;-76
2022/07/13 07:24:38;;;;;;;2.33;0.80;;;22.10;65.90;;;21.67;47.89;97949.72;5033369;28;21014;-75
2022/07/13 07:27:07;;;;;;;2.30;0.85;;;22.20;65.20;;;21.82;47.90;97940.44;5040811;28;20395;-75
2022/07/13 07:29:33;;;;;;;4.25;1.00;;;22.30;65.20;;;21.95;47.97;97940.34;5037637;28;20989;-76
2022/07/13 07:31:59;;;;;;;2.67;0.80;;;22.40;65.30;;;22.08;47.57;97941.41;5033018;28;20406;-76
2022/07/13 07:34:25;;;;;;;2.38;0.80;;;22.50;64.60;;;22.15;46.53;97949.03;5042107;28;20965;-76
2022/07/13 07:36:51;;;;;;;0.80;0.80;;;22.60;63.40;;;22.34;46.54;97949.56;5053026;28;20407;-75
2022/07/13 07:39:18;;;;;;;0.80;0.60;;;22.80;63.50;;;22.45;46.31;97939.28;5052338;28;20405;-75
2022/07/13 07:41:44;;;;;;;3.45;0.68;;;22.90;63.20;;;22.66;44.90;97940.25;5050910;28;20419;-75
2022/07/13 07:44:10;;;;;;;0.60;0.60;;;23.10;61.20;;;22.81;44.07;97936.34;5052897;28;20397;-75
2022/07/13 07:46:36;;;;;;;2.00;0.70;;;23.30;60.00;;;22.93;43.30;97936.53;5052809;28;20908;-76
2022/07/13 07:49:03;;;;;;;1.47;0.97;;;23.40;59.30;;;23.21;42.79;97928.88;5052316;28;20883;-75
2022/07/13 07:51:30;;;;;;;1.90;0.98;;;23.60;58.90;;;23.22;42.45;97936.66;5052476;28;20397;-76
2022/07/13 07:53:56;;;;;;;0.60;0.50;;;23.70;58.20;;;23.26;42.56;97936.81;5052507;28;20501;-75
2022/07/13 07:56:24;;;;;;;2.40;0.70;;;23.70;58.20;;;23.41;39.66;97930.91;5052411;28;20397;-75
2022/07/13 07:58:50;;;;;;;0.80;0.60;;;23.90;56.10;;;23.57;40.30;97934.72;5034070;28;20413;-75
2022/07/13 08:01:16;;;;;;;1.10;0.60;;;23.90;55.80;;;23.72;39.80;97936.91;5052378;28;20413;-75
2022/07/13 08:03:42;;;;;;;0.60;0.60;;;24.10;55.20;;;23.87;39.78;97939.06;5052595;28;20438;-76
2022/07/13 08:06:08;;;;;;;1.33;0.88;;;24.30;55.00;;;24.17;37.27;97934.50;5052625;28;20432;-75
2022/07/13 08:08:36;;;;;;;1.70;0.68;;;24.50;52.60;;;24.29;38.49;97933.81;5052019;28;20406;-75
2022/07/13 08:11:03;;;;;;;1.02;0.60;;;24.70;53.40;;;24.50;37.45;97937.38;5052202;28;20402;-76
2022/07/13 08:13:30;;;;;;;0.65;0.55;;;24.90;52.70;;;24.48;37.57;97936.09;5052991;28;20444;-75
2022/07/13 08:15:56;;;;;;;1.73;0.80;;;24.90;52.20;;;24.61;36.98;97932.34;5054771;28;20499;-75
2022/07/13 08:18:22;;;;;;;0.93;0.50;;;25.00;51.90;;;24.71;37.57;97934.69;5054831;28;20421;-76
2022/07/13 08:20:48;;;;;;;1.17;0.70;;;25.10;52.20;;;24.87;36.89;97934.88;5048549;28;20455;-75
2022/07/13 08:25:59;;;;;;;1.35;0.68;;;25.30;50.80;;;24.94;34.45;97937.88;5060434;28;20434;-75
2022/07/13 08:28:25;;;;;;;1.23;0.60;;;25.30;49.40;;;24.90;35.07;97931.50;5053263;28;20416;-75
2022/07/13 08:30:52;;;;;;;3.13;0.60;;;25.40;49.30;;;25.03;36.28;97942.09;5049643;28;20407;-75
2022/07/13 08:33:18;;;;;;;4.53;0.52;;;25.30;50.60;;;25.00;35.74;97934.63;5054064;28;20441;-75
2022/07/13 08:38:35;;;;;;;1.55;0.60;;;25.40;50.80;;;25.22;35.43;97925.38;5051363;28;20890;-75
2022/07/13 08:41:01;;;;;;;0.77;0.57;;;25.50;50.30;;;25.33;34.99;97931.16;5051532;28;20401;-75
2022/07/13 08:43:27;;;;;;;2.00;0.57;;;25.70;49.40;;;25.34;35.20;97930.81;5051686;28;20750;-75
2022/07/13 08:45:54;;;;;;;2.35;0.60;;;25.70;49.30;;;25.32;34.87;97932.28;5055946;28;20412;-75
2022/07/13 08:48:31;;;;;;;1.05;0.70;;;25.70;49.30;;;25.19;33.95;97939.56;5051062;28;20496;-76
2022/07/13 08:50:58;;;;;;;0.47;0.47;;;25.60;48.00;;;25.11;35.12;97932.31;5051343;28;20413;-75
2022/07/13 08:53:25;;;;;;;2.13;0.50;;;25.50;49.90;;;25.09;35.82;97929.16;5051977;28;20722;-75
2022/07/13 08:55:53;;;;;;;0.73;0.68;;;25.50;49.80;;;25.07;35.63;97934.09;5051615;28;20389;-76
2022/07/13 08:58:18;;;;;;;0.90;0.60;;;25.50;49.80;;;25.15;34.84;97932.44;5050841;28;20406;-75
2022/07/13 09:00:45;;;;;;;2.43;0.60;;;25.60;49.30;;;25.36;35.27;97914.22;5051174;28;20494;-75
2022/07/13 09:03:12;;;;;;;2.08;0.50;;;25.70;49.60;;;25.36;35.28;97915.00;5048351;28;20739;-75
2022/07/13 09:05:39;;;;;;;2.13;0.60;;;25.80;49.60;;;25.39;35.63;97919.00;5050849;28;20408;-75
2022/07/13 09:08:08;;;;;;;3.33;0.70;;;25.80;49.60;;;25.38;34.45;97915.47;5050134;28;20397;-74
2022/07/13 09:10:53;;;;;;;0.70;0.52;;;25.80;48.40;;;25.40;33.68;97917.88;5048601;28;20431;-75
2022/07/13 09:13:34;;;;;;;1.80;0.90;;;25.80;47.70;;;25.41;33.53;97916.75;5049020;28;20899;-75
2022/07/13 09:16:17;;;;;;;1.52;0.55;;;25.80;47.50;;;25.42;32.45;97916.38;5049030;28;20459;-75
2022/07/13 09:18:46;;;;;;;0.60;0.50;;;25.90;46.00;;;25.49;33.18;97918.53;5046867;28;20425;-74
2022/07/13 09:21:12;;;;;;;2.75;0.80;;;25.90;46.60;;;25.47;32.21;97923.53;5030845;28;20404;-75
2022/07/13 09:23:39;;;;;;;0.90;0.60;;;26.00;46.10;;;25.60;33.07;97917.03;5048995;28;20420;-76
2022/07/13 09:26:06;;;;;;;1.80;0.57;;;26.00;46.60;;;25.61;32.97;97929.47;5051033;28;20409;-76
2022/07/13 09:28:43;;;;;;;2.70;0.60;;;26.00;46.90;;;25.82;31.85;97929.38;5050381;28;20408;-76
2022/07/13 09:31:09;;;;;;;1.38;0.50;;;26.20;45.30;;;25.91;31.88;97926.56;5050638;28;20421;-76
2022/07/13 09:33:38;;;;;;;1.48;0.63;;;26.40;45.30;;;25.88;29.22;97928.03;5050766;28;20416;-76
2022/07/13 09:36:13;;;;;;;3.30;0.90;;;26.40;42.70;;;25.92;30.09;97923.53;5050712;28;20469;-76
2022/07/13 09:38:42;;;;;;;0.73;0.52;;;26.40;43.40;;;25.92;31.14;97920.03;5049959;28;20409;-76
2022/07/13 09:46:55;;;;;;;1.05;0.68;;;26.40;41.30;;;26.13;29.22;97918.00;5091082;28;20518;-76
2022/07/13 09:49:34;;;;;;;0.85;0.70;;;26.50;42.70;;;26.27;30.32;97914.97;5090471;28;20402;-75
2022/07/13 09:52:05;;;;;;;1.90;0.60;;;26.60;43.40;;;26.41;28.16;97916.19;5082606;28;20391;-75
2022/07/13 09:54:33;;;;;;;2.35;0.70;;;26.70;41.30;;;26.38;28.84;97907.97;5070548;28;20388;-75
2022/07/13 09:57:01;;;;;;;0.77;0.60;;;26.80;41.70;;;26.45;29.79;97911.69;5070656;28;20404;-76
2022/07/13 09:59:29;;;;;;;1.93;0.60;;;26.90;43.30;;;26.48;29.86;97916.41;5069279;28;20439;-77
2022/07/13 10:01:56;;;;;;;1.45;0.70;;;27.00;43.10;;;26.55;29.21;97915.81;5070169;28;20411;-76
2022/07/13 10:04:23;;;;;;;0.70;0.60;;;27.00;43.40;;;26.53;27.75;97912.69;5070323;28;20620;-76
2022/07/13 10:06:50;;;;;;;2.08;0.60;;;27.00;41.10;;;26.51;26.71;97918.44;5070567;28;20399;-77
2022/07/13 10:09:29;;;;;;;1.60;0.50;;;27.10;39.50;;;26.65;26.14;97909.94;5069797;28;20468;-77
2022/07/13 10:11:56;;;;;;;0.87;0.53;;;27.10;38.70;;;26.80;25.62;97911.94;5069905;28;20396;-77
2022/07/13 10:14:22;;;;;;;2.70;0.50;;;27.20;38.20;;;26.82;27.23;97917.81;5070173;28;20392;-77
2022/07/13 10:16:49;;;;;;;1.97;0.40;;;27.20;39.90;;;26.97;26.56;97921.78;5070301;28;20399;-77
2022/07/13 10:19:15;;;;;;;1.20;0.57;;;27.30;39.00;;;27.06;26.78;97917.00;5069540;28;20465;-77
2022/07/13 10:21:59;;;;;;;0.40;0.30;;;27.40;39.60;;;27.09;26.37;97919.00;5069642;28;20440;-76
2022/07/13 10:24:28;;;;;;;0.37;0.30;;;27.40;39.20;;;27.24;26.57;97914.75;5070046;28;20392;-77
2022/07/13 10:27:22;;;;;;;0.20;0.20;;;27.60;39.60;;;27.50;25.77;97912.34;5070501;28;20453;-77
2022/07/13 10:29:49;;;;;;;2.13;0.40;;;27.80;38.60;;;27.64;25.44;97911.97;5069517;28;20459;-77